This is the latest recevied weather packets stored in our database for station/object SK4BW-10. If no packets are shown the sender has not sent any weather packets the latest 10 day(s).
| Time | Temp. | Humidity | Pressure | Rain* | Wind** | Luminosity | Snow |
|---|---|---|---|---|---|---|---|
| 1777419283 | 2.22° C | 52% | 1025.8 hPa | - | - | - | - |
| 1777418383 | 2.78° C | 50% | 1025.9 hPa | - | - | - | - |
| 1777417483 | 2.22° C | 50% | 1026 hPa | - | - | - | - |
| 1777416581 | 2.78° C | 51% | 1025.9 hPa | - | - | - | - |
| 1777415681 | 3.33° C | 47% | 1025.9 hPa | - | - | - | - |
| 1777414780 | 3.33° C | 47% | 1025.8 hPa | - | - | - | - |
| 1777413879 | 3.89° C | 45% | 1025.6 hPa | - | - | - | - |
| 1777412978 | 3.33° C | 46% | 1025.6 hPa | - | - | - | - |
| 1777412077 | 3.33° C | 47% | 1025.6 hPa | - | - | - | - |
| 1777411177 | 3.33° C | 47% | 1025.6 hPa | - | - | - | - |
| 1777410276 | 3.89° C | 48% | 1025.6 hPa | - | - | - | - |
| 1777409375 | 3.89° C | 48% | 1025.6 hPa | - | - | - | - |
| 1777408474 | 3.33° C | 50% | 1025.5 hPa | - | - | - | - |
| 1777407573 | 3.33° C | 51% | 1025.4 hPa | - | - | - | - |
| 1777406673 | 4.44° C | 47% | 1025.3 hPa | - | - | - | - |
| 1777405772 | 4.44° C | 46% | 1025.2 hPa | - | - | - | - |
| 1777404872 | 5° C | 45% | 1025.1 hPa | - | - | - | - |
| 1777403971 | 4.44° C | 45% | 1025.1 hPa | - | - | - | - |
| 1777403071 | 4.44° C | 46% | 1024.9 hPa | - | - | - | - |
| 1777402170 | 5° C | 45% | 1024.9 hPa | - | - | - | - |
| 1777401269 | 5.56° C | 44% | 1024.8 hPa | - | - | - | - |
| 1777400369 | 6.11° C | 43% | 1024.8 hPa | - | - | - | - |
| 1777399468 | 6.67° C | 43% | 1024.6 hPa | - | - | - | - |
| 1777398567 | 6.67° C | 41% | 1024.5 hPa | - | - | - | - |
| 1777397666 | 6.67° C | 40% | 1024.5 hPa | - | - | - | - |
* Rain since midnight (hover to see other rain measurements)
** Current wind speed in m/s (hover to see current wind gust speed)